This is the latest recevied weather packets stored in our database for station/object Kisslegg. If no packets are shown the sender has not sent any weather packets the latest 10 day(s).
| Time | Temp. | Humidity | Pressure | Rain* | Wind** | Luminosity | Snow |
|---|---|---|---|---|---|---|---|
| 1777660330 | 16.67° C | 42% | 1023.3 hPa | 0 mm | - | - | - |
| 1777658531 | 18.33° C | 38% | 1023.2 hPa | 0 mm | - | - | - |
| 1777656731 | 19.44° C | 35% | 1023.2 hPa | 0 mm | - | - | - |
| 1777654930 | 20° C | 32% | 1023.3 hPa | 0 mm | - | - | - |
| 1777653130 | 20.56° C | 31% | 1023.5 hPa | 0 mm | - | - | - |
| 1777651330 | 20.56° C | 29% | 1023.8 hPa | 0 mm | - | - | - |
| 1777649530 | 20.56° C | 29% | 1023.8 hPa | 0 mm | - | - | - |
| 1777647730 | 20.56° C | 31% | 1023.9 hPa | 0 mm | - | - | - |
| 1777645930 | 20.56° C | 30% | 1024.2 hPa | 0 mm | - | - | - |
| 1777644130 | 21.11° C | 28% | 1024.3 hPa | 0 mm | - | - | - |
| 1777642330 | 20° C | 28% | 1024.7 hPa | 0 mm | - | - | - |
| 1777640531 | 20° C | 30% | 1025 hPa | 0 mm | - | - | - |
| 1777638736 | 18.89° C | 32% | 1025.1 hPa | 0 mm | - | - | - |
| 1777636931 | 18.33° C | 35% | 1025.3 hPa | 0 mm | - | - | - |
| 1777635130 | 17.78° C | 35% | 1025.6 hPa | 0 mm | - | - | - |
| 1777633331 | 17.22° C | 38% | 1025.8 hPa | 0 mm | - | - | - |
| 1777631531 | 16.67° C | 42% | 1026.1 hPa | 0 mm | - | - | - |
| 1777629731 | 15° C | 43% | 1026.2 hPa | 0 mm | - | - | - |
| 1777627930 | 14.44° C | 45% | 1026.4 hPa | 0 mm | - | - | - |
| 1777626132 | 13.33° C | 47% | 1026.5 hPa | 0 mm | - | - | - |
| 1777624331 | 12.22° C | 47% | 1026.4 hPa | 0 mm | - | - | - |
| 1777622532 | 10.56° C | 51% | 1026.3 hPa | 0 mm | - | - | - |
| 1777620733 | 10° C | 52% | 1026.2 hPa | 0 mm | - | - | - |
| 1777618930 | 8.33° C | 52% | 1026.2 hPa | 0 mm | - | - | - |
| 1777617131 | 7.22° C | 53% | 1026 hPa | 0 mm | - | - | - |
* Rain since midnight (hover to see other rain measurements)
** Current wind speed in m/s (hover to see current wind gust speed)